createdAt,value
2019-04-21T00:01:14.586Z,3.23
2019-04-21T00:03:50.151Z,3.50
2019-04-21T00:06:36.727Z,3.23
2019-04-21T00:09:02.350Z,3.43
2019-04-21T00:11:37.676Z,3.37
2019-04-21T00:13:56.163Z,3.07
2019-04-21T00:16:15.641Z,3.30
2019-04-21T00:19:12.161Z,3.03
2019-04-21T00:21:40.521Z,3.47
2019-04-21T00:24:24.222Z,3.20
2019-04-21T00:26:57.399Z,3.60
2019-04-21T00:29:36.641Z,3.10
2019-04-21T00:31:56.387Z,3.17
2019-04-21T00:34:11.164Z,3.30
2019-04-21T00:36:51.437Z,3.13
2019-04-21T00:39:36.390Z,3.43
2019-04-21T00:41:59.536Z,3.55
2019-04-21T00:44:22.488Z,3.70
2019-04-21T00:46:58.267Z,3.40
2019-04-21T00:49:26.945Z,3.63
2019-04-21T00:52:31.750Z,2.97
2019-04-21T00:55:01.706Z,3.37
2019-04-21T00:57:19.621Z,3.37
2019-04-21T00:59:45.441Z,3.60
2019-04-21T01:02:12.401Z,3.10
2019-04-21T01:04:49.531Z,3.27
2019-04-21T01:07:13.251Z,3.20
2019-04-21T01:09:42.676Z,3.30
2019-04-21T01:12:12.723Z,3.37
2019-04-21T01:14:49.646Z,3.40
2019-04-21T01:17:19.293Z,3.17
2019-04-21T01:19:39.772Z,3.53
2019-04-21T01:21:54.658Z,3.30
2019-04-21T01:24:30.771Z,3.63
2019-04-21T01:27:02.380Z,3.47
2019-04-21T01:29:45.978Z,3.50
2019-04-21T01:32:19.345Z,3.30
2019-04-21T01:34:40.793Z,3.57
2019-04-21T01:37:04.650Z,3.40
2019-04-21T01:39:47.943Z,3.50
2019-04-21T01:42:08.934Z,3.07
2019-04-21T01:44:41.850Z,3.20
2019-04-21T01:47:06.057Z,3.17
2019-04-21T01:49:33.472Z,3.60
2019-04-21T01:55:06.054Z,3.20
2019-04-21T01:57:52.708Z,3.37
2019-04-21T02:00:19.400Z,3.33
2019-04-21T02:03:03.883Z,3.40
2019-04-21T02:05:34.362Z,3.20
2019-04-21T02:07:57.798Z,3.83
2019-04-21T02:10:35.269Z,3.80
2019-04-21T02:12:59.741Z,3.50
2019-04-21T02:15:32.576Z,3.63
2019-04-21T02:17:59.529Z,3.20
2019-04-21T02:20:18.235Z,3.57
2019-04-21T02:23:10.229Z,3.37
2019-04-21T02:25:26.149Z,3.90
2019-04-21T02:27:59.246Z,3.10
2019-04-21T02:30:50.139Z,3.60
2019-04-21T02:33:08.637Z,4.07
2019-04-21T02:38:08.871Z,3.43
2019-04-21T02:40:38.530Z,3.57
2019-04-21T02:45:37.850Z,3.30
2019-04-21T02:48:08.734Z,3.50
2019-04-21T02:50:45.187Z,3.97
2019-04-21T02:53:11.479Z,4.10
2019-04-21T02:55:36.305Z,3.60
2019-04-21T03:01:14.523Z,3.27
2019-04-21T03:03:52.509Z,3.60
2019-04-21T03:06:51.988Z,3.73
2019-04-21T03:09:20.114Z,3.60
2019-04-21T03:11:42.207Z,3.00
2019-04-21T03:14:16.803Z,3.40
2019-04-21T03:16:34.777Z,3.70
2019-04-21T03:19:15.627Z,3.77
2019-04-21T03:21:38.701Z,3.70
2019-04-21T03:24:33.192Z,3.70
2019-04-21T03:29:17.052Z,3.37
2019-04-21T03:32:28.502Z,3.63
2019-04-21T03:36:57.085Z,3.07
2019-04-21T03:39:09.557Z,3.53
2019-04-21T03:41:54.265Z,3.50
2019-04-21T03:46:43.722Z,3.10
2019-04-21T03:49:19.247Z,3.13
2019-04-21T03:51:45.924Z,3.20
2019-04-21T03:54:07.720Z,3.30
2019-04-21T03:56:59.425Z,3.10
2019-04-21T03:59:03.937Z,3.47
2019-04-21T04:02:06.776Z,3.27
2019-04-21T04:07:44.053Z,2.97
2019-04-21T04:12:35.018Z,3.47
2019-04-21T04:15:09.416Z,3.13
2019-04-21T04:17:46.838Z,3.43
2019-04-21T04:20:03.939Z,3.43
2019-04-21T04:25:05.149Z,3.30
2019-04-21T04:30:20.009Z,3.37
2019-04-21T04:32:38.500Z,3.67
2019-04-21T04:37:38.266Z,3.47
2019-04-21T04:40:21.521Z,3.60
2019-04-21T04:48:19.393Z,4.00
2019-04-21T04:50:58.118Z,3.40
2019-04-21T04:53:12.054Z,3.80
2019-04-21T04:55:43.302Z,3.83
2019-04-21T04:58:06.862Z,4.20
2019-04-21T05:03:18.836Z,3.73
2019-04-21T05:06:11.394Z,3.70
2019-04-21T05:08:47.463Z,3.90
2019-04-21T05:11:24.060Z,3.93
2019-04-21T05:13:26.018Z,3.60
2019-04-21T05:16:02.157Z,3.80
2019-04-21T05:18:25.142Z,3.50
2019-04-21T05:21:10.568Z,3.53
2019-04-21T05:23:19.373Z,4.10
2019-04-21T05:25:43.270Z,3.70
2019-04-21T05:28:12.478Z,3.50
2019-04-21T05:31:11.029Z,4.17
2019-04-21T05:33:43.069Z,3.50
2019-04-21T05:36:09.390Z,3.90
2019-04-21T05:38:57.061Z,4.30
2019-04-21T05:41:20.737Z,3.70
2019-04-21T05:43:58.860Z,3.70
2019-04-21T05:46:32.058Z,3.63
2019-04-21T05:49:06.818Z,3.60
2019-04-21T05:51:34.135Z,3.70
2019-04-21T05:54:09.301Z,3.83
2019-04-21T05:56:37.982Z,3.67
2019-04-21T05:59:02.118Z,3.43
2019-04-21T06:04:03.925Z,3.77
2019-04-21T06:06:33.595Z,3.83
2019-04-21T06:08:59.473Z,3.93
2019-04-21T06:11:30.558Z,4.03
2019-04-21T06:14:08.434Z,3.60
2019-04-21T06:16:40.336Z,3.83
2019-04-21T06:19:22.541Z,3.40
2019-04-21T06:21:33.345Z,3.53
2019-04-21T06:24:02.450Z,3.63
2019-04-21T06:26:50.450Z,3.50
2019-04-21T06:28:58.056Z,3.47
2019-04-21T06:32:08.725Z,3.43
2019-04-21T06:34:04.923Z,3.53
2019-04-21T06:44:24.024Z,3.50
2019-04-21T06:46:48.909Z,3.90
2019-04-21T06:49:24.146Z,3.73
2019-04-21T06:51:38.932Z,3.60
2019-04-21T06:54:09.664Z,3.47
2019-04-21T06:56:41.288Z,3.57
2019-04-21T06:59:06.066Z,3.90
2019-04-21T07:06:42.619Z,3.70
2019-04-21T07:09:17.375Z,3.40
2019-04-21T07:11:37.860Z,3.57
2019-04-21T07:14:29.235Z,3.30
2019-04-21T07:16:44.946Z,3.20
2019-04-21T07:19:33.333Z,3.40
2019-04-21T07:21:38.532Z,3.33
2019-04-21T07:24:17.314Z,3.33
2019-04-21T07:26:39.245Z,2.90
2019-04-21T07:29:07.838Z,3.07
2019-04-21T07:31:54.389Z,2.93
2019-04-21T07:36:46.434Z,2.83
2019-04-21T07:39:01.915Z,2.93
2019-04-21T07:41:31.115Z,3.20
2019-04-21T07:44:01.756Z,3.60
2019-04-21T07:46:27.438Z,2.77
2019-04-21T07:49:27.144Z,3.50
2019-04-21T07:52:18.932Z,2.97
2019-04-21T07:54:53.172Z,3.20
2019-04-21T07:57:12.988Z,3.17
2019-04-21T08:00:15.993Z,3.00
2019-04-21T08:02:15.939Z,2.80
2019-04-21T08:04:52.774Z,2.93
2019-04-21T08:07:14.997Z,3.00
2019-04-21T08:09:42.543Z,2.73
2019-04-21T08:12:12.106Z,2.87
2019-04-21T08:14:43.656Z,2.80
2019-04-21T08:17:13.678Z,2.83
2019-04-21T08:19:35.472Z,3.10
2019-04-21T08:22:22.075Z,3.10
2019-04-21T08:24:42.390Z,3.03
2019-04-21T08:27:14.191Z,2.70
2019-04-21T08:29:47.581Z,2.87
2019-04-21T08:34:45.430Z,3.07
2019-04-21T08:37:13.897Z,3.10
2019-04-21T08:39:47.879Z,3.17
2019-04-21T08:42:10.896Z,3.03
2019-04-21T08:44:40.072Z,2.97
2019-04-21T08:47:15.851Z,3.07
2019-04-21T08:49:41.526Z,3.10
2019-04-21T08:52:16.741Z,3.17
2019-04-21T08:54:40.931Z,2.97
2019-04-21T08:57:33.301Z,3.23
2019-04-21T09:00:16.751Z,3.40
2019-04-21T09:03:03.745Z,3.53
2019-04-21T09:05:29.537Z,3.37
2019-04-21T09:08:06.720Z,3.60
2019-04-21T09:10:31.143Z,3.23
2019-04-21T09:12:58.808Z,3.50
2019-04-21T09:15:32.476Z,3.60
2019-04-21T09:17:54.988Z,3.63
2019-04-21T09:20:36.493Z,3.67
2019-04-21T09:23:01.169Z,3.70
2019-04-21T09:25:36.001Z,3.77
2019-04-21T09:28:00.573Z,3.60
2019-04-21T09:30:11.019Z,3.80
2019-04-21T09:32:40.306Z,3.63
2019-04-21T09:35:12.471Z,4.37
2019-04-21T09:37:47.600Z,3.77
2019-04-21T09:40:08.956Z,3.30
2019-04-21T09:42:46.801Z,3.33
2019-04-21T09:45:10.036Z,3.40
2019-04-21T09:47:46.009Z,3.20
2019-04-21T09:50:06.751Z,3.30
2019-04-21T09:52:41.834Z,3.30
2019-04-21T09:55:12.523Z,3.37
2019-04-21T09:57:42.674Z,3.53
2019-04-21T10:00:12.534Z,3.50
2019-04-21T10:02:43.862Z,3.10
2019-04-21T10:05:05.343Z,3.10
2019-04-21T10:07:38.472Z,3.50
2019-04-21T10:10:03.833Z,3.20
2019-04-21T10:12:33.149Z,3.03
2019-04-21T10:15:01.925Z,2.70
2019-04-21T10:17:39.545Z,2.77
2019-04-21T10:20:09.345Z,2.83
2019-04-21T10:22:37.583Z,2.70
2019-04-21T10:25:06.711Z,2.80
2019-04-21T10:27:34.918Z,2.60
2019-04-21T10:30:03.749Z,2.53
2019-04-21T10:32:32.365Z,2.63
2019-04-21T10:35:01.144Z,2.87
2019-04-21T10:37:42.297Z,2.93
2019-04-21T10:40:00.126Z,2.70
2019-04-21T10:42:29.094Z,2.90
2019-04-21T10:44:57.299Z,2.70
2019-04-21T10:47:26.682Z,2.60
2019-04-21T10:49:55.012Z,3.33
2019-04-21T10:52:32.915Z,2.93
2019-04-21T10:55:19.117Z,2.90
2019-04-21T10:57:32.577Z,3.40
2019-04-21T11:00:01.454Z,3.17
2019-04-21T11:02:35.445Z,3.43
2019-04-21T11:05:04.761Z,3.10
2019-04-21T11:08:12.180Z,2.90
2019-04-21T11:10:31.962Z,3.43
2019-04-21T11:13:00.733Z,3.17
2019-04-21T11:15:29.446Z,3.20
2019-04-21T11:17:57.811Z,3.10
2019-04-21T11:20:26.904Z,3.40
2019-04-21T11:22:55.578Z,3.13
2019-04-21T11:25:24.286Z,3.30
2019-04-21T11:27:53.157Z,3.43
2019-04-21T11:30:21.555Z,3.30
2019-04-21T11:32:51.025Z,3.43
2019-04-21T11:35:19.300Z,3.00
2019-04-21T11:37:48.345Z,3.20
2019-04-21T11:40:18.551Z,3.00
2019-04-21T11:42:46.331Z,3.00
2019-04-21T11:45:16.591Z,3.00
2019-04-21T11:48:04.601Z,3.20
2019-04-21T11:50:34.983Z,3.40
2019-04-21T11:53:03.192Z,3.30
2019-04-21T11:55:34.360Z,3.33
2019-04-21T11:58:00.991Z,3.37
2019-04-21T12:00:29.489Z,3.00
2019-04-21T12:02:57.730Z,3.30
2019-04-21T12:05:25.664Z,3.07
2019-04-21T12:07:53.607Z,3.47
2019-04-21T12:10:21.680Z,3.37
2019-04-21T12:12:50.860Z,3.23
2019-04-21T12:15:19.087Z,3.73
2019-04-21T12:17:48.065Z,3.07
2019-04-21T12:20:16.758Z,3.20
2019-04-21T12:22:45.326Z,3.27
2019-04-21T12:25:15.524Z,3.10
2019-04-21T12:27:43.915Z,3.47
2019-04-21T12:30:13.721Z,3.30
2019-04-21T12:32:56.064Z,3.30
2019-04-21T12:35:24.019Z,3.10
2019-04-21T12:37:53.169Z,3.07
2019-04-21T12:40:21.304Z,3.10
2019-04-21T12:42:50.373Z,3.27
2019-04-21T12:45:19.285Z,3.00
2019-04-21T12:47:49.949Z,3.40
2019-04-21T12:50:18.305Z,3.57
2019-04-21T12:52:47.353Z,3.20
2019-04-21T12:55:15.696Z,3.20
2019-04-21T12:57:43.654Z,3.10
2019-04-21T13:00:15.118Z,3.07
2019-04-21T13:02:43.543Z,3.30
2019-04-21T13:05:11.899Z,3.07
2019-04-21T13:07:39.890Z,3.13
2019-04-21T13:10:08.523Z,3.17
2019-04-21T13:12:37.877Z,2.70
2019-04-21T13:15:06.673Z,2.80
2019-04-21T13:17:35.342Z,2.83
2019-04-21T13:20:05.269Z,2.40
2019-04-21T13:22:34.188Z,2.67
2019-04-21T13:25:02.582Z,2.83
2019-04-21T13:27:30.891Z,2.57
2019-04-21T13:30:00.058Z,2.77
2019-04-21T13:32:29.147Z,2.60
2019-04-21T13:34:57.131Z,2.77
2019-04-21T13:37:25.684Z,2.77
2019-04-21T13:40:27.896Z,2.80
2019-04-21T13:42:40.214Z,2.67
2019-04-21T13:45:04.871Z,2.50
2019-04-21T13:47:34.652Z,2.43
2019-04-21T13:50:05.298Z,2.80
2019-04-21T13:52:33.217Z,2.63
2019-04-21T13:55:01.438Z,2.27
2019-04-21T13:57:30.364Z,2.50
2019-04-21T13:59:59.298Z,2.27
2019-04-21T14:02:28.871Z,2.20
2019-04-21T14:04:57.135Z,1.90
2019-04-21T14:07:26.053Z,1.60
2019-04-21T14:09:59.472Z,1.90
2019-04-21T14:12:23.963Z,1.70
2019-04-21T14:14:52.483Z,1.70
2019-04-21T14:17:21.346Z,1.77
2019-04-21T14:19:51.044Z,1.80
2019-04-21T14:22:20.183Z,1.60
2019-04-21T14:24:48.087Z,1.57
2019-04-21T14:27:16.428Z,1.70
2019-04-21T14:29:45.933Z,1.60
2019-04-21T14:32:14.230Z,1.70
2019-04-21T14:34:42.315Z,1.90
2019-04-21T14:37:10.867Z,2.07
2019-04-21T14:39:51.660Z,1.70
2019-04-21T14:42:08.975Z,1.97
2019-04-21T14:44:37.030Z,1.90
2019-04-21T14:47:34.969Z,2.00
2019-04-21T14:50:24.432Z,2.30
2019-04-21T14:53:16.047Z,2.10
2019-04-21T14:55:45.777Z,2.40
2019-04-21T14:58:14.954Z,2.20
2019-04-21T15:00:58.012Z,2.67
2019-04-21T15:03:25.919Z,2.40
2019-04-21T15:05:55.601Z,2.40
2019-04-21T15:08:24.848Z,2.47
2019-04-21T15:10:52.940Z,2.50
2019-04-21T15:13:21.800Z,2.70
2019-04-21T15:15:50.071Z,2.30
2019-04-21T15:18:18.783Z,2.67
2019-04-21T15:20:48.599Z,2.27
2019-04-21T15:23:18.005Z,2.47
2019-04-21T15:25:46.322Z,2.30
2019-04-21T15:28:15.844Z,2.20
2019-04-21T15:30:44.706Z,2.10
2019-04-21T15:33:13.040Z,2.70
2019-04-21T15:35:40.893Z,2.63
2019-04-21T15:38:09.748Z,2.60
2019-04-21T15:40:48.035Z,2.70
2019-04-21T15:43:08.492Z,2.67
2019-04-21T15:45:37.107Z,2.47
2019-04-21T15:48:05.339Z,2.60
2019-04-21T15:50:33.095Z,2.70
2019-04-21T15:53:03.883Z,3.00
2019-04-21T15:55:54.973Z,3.00
2019-04-21T15:58:40.908Z,2.47
2019-04-21T16:01:18.684Z,2.70
2019-04-21T16:03:47.048Z,3.10
2019-04-21T16:06:14.999Z,2.90
2019-04-21T16:08:47.566Z,2.83
2019-04-21T16:11:13.654Z,2.70
2019-04-21T16:13:43.493Z,2.90
2019-04-21T16:16:12.667Z,2.70
2019-04-21T16:18:42.498Z,3.03
2019-04-21T16:21:11.739Z,2.90
2019-04-21T16:23:40.517Z,3.13
2019-04-21T16:26:08.808Z,3.10
2019-04-21T16:28:37.355Z,3.20
2019-04-21T16:31:06.759Z,2.67
2019-04-21T16:33:34.828Z,2.93
2019-04-21T16:36:02.971Z,2.83
2019-04-21T16:38:51.468Z,3.00
2019-04-21T16:41:20.366Z,2.93
2019-04-21T16:43:49.252Z,2.80
2019-04-21T16:46:17.872Z,2.90
2019-04-21T16:48:45.991Z,3.03
2019-04-21T16:51:15.106Z,3.53
2019-04-21T16:54:06.336Z,2.80
2019-04-21T16:56:43.869Z,2.70
2019-04-21T16:59:40.407Z,2.80
2019-04-21T17:02:08.375Z,2.67
2019-04-21T17:04:36.443Z,3.27
2019-04-21T17:07:05.151Z,2.80
2019-04-21T17:09:34.633Z,3.10
2019-04-21T17:12:07.424Z,2.90
2019-04-21T17:14:49.673Z,2.70
2019-04-21T17:17:25.243Z,2.90
2019-04-21T17:19:38.084Z,2.90
2019-04-21T17:22:03.816Z,2.77
2019-04-21T17:24:32.583Z,2.80
2019-04-21T17:27:00.450Z,2.90
2019-04-21T17:29:28.582Z,2.90
2019-04-21T17:31:57.373Z,2.73
2019-04-21T17:34:29.769Z,2.70
2019-04-21T17:36:57.131Z,2.73
2019-04-21T17:39:25.121Z,2.73
2019-04-21T17:42:05.680Z,2.60
2019-04-21T17:44:23.496Z,2.53
2019-04-21T17:46:57.844Z,2.80
2019-04-21T17:49:21.529Z,2.70
2019-04-21T17:52:11.257Z,2.73
2019-04-21T17:54:46.910Z,2.43
2019-04-21T17:57:33.075Z,2.87
2019-04-21T18:00:08.458Z,2.80
2019-04-21T18:02:35.142Z,2.83
2019-04-21T18:05:02.458Z,2.57
2019-04-21T18:07:31.617Z,2.80
2019-04-21T18:10:22.229Z,2.80
2019-04-21T18:12:45.830Z,2.90
2019-04-21T18:15:21.986Z,3.10
2019-04-21T18:17:36.409Z,2.67
2019-04-21T18:20:06.005Z,2.80
2019-04-21T18:23:00.950Z,2.47
2019-04-21T18:25:44.176Z,3.17
2019-04-21T18:28:05.753Z,3.10
2019-04-21T18:30:46.585Z,2.70
2019-04-21T18:33:22.202Z,3.00
2019-04-21T18:36:06.690Z,3.03
2019-04-21T18:39:18.024Z,3.03
2019-04-21T18:41:34.436Z,3.00
2019-04-21T18:47:20.106Z,3.10
2019-04-21T18:49:50.435Z,2.93
2019-04-21T18:52:56.042Z,3.67
2019-04-21T18:55:21.318Z,3.03
2019-04-21T18:57:44.464Z,3.13
2019-04-21T19:00:19.342Z,3.07
2019-04-21T19:02:47.740Z,3.10
2019-04-21T19:05:17.206Z,3.03
2019-04-21T19:07:55.848Z,3.33
2019-04-21T19:10:37.715Z,2.60
2019-04-21T19:15:27.843Z,2.73
2019-04-21T19:18:29.592Z,3.30
2019-04-21T19:20:26.078Z,3.07
2019-04-21T19:22:52.247Z,2.80
2019-04-21T19:25:26.983Z,2.67
2019-04-21T19:27:55.194Z,3.00
2019-04-21T19:30:36.423Z,2.97
2019-04-21T19:32:58.334Z,3.07
2019-04-21T19:35:11.122Z,2.93
2019-04-21T19:37:49.156Z,3.00
2019-04-21T19:40:27.537Z,3.03
2019-04-21T19:42:51.186Z,3.00
2019-04-21T19:45:22.495Z,2.87
2019-04-21T19:48:03.939Z,3.00
2019-04-21T19:50:35.173Z,3.23
2019-04-21T19:52:55.083Z,2.83
2019-04-21T19:55:15.967Z,3.03
2019-04-21T19:57:45.099Z,3.17
2019-04-21T20:00:14.067Z,3.13
2019-04-21T20:02:44.750Z,3.00
2019-04-21T20:05:23.808Z,3.00
2019-04-21T20:07:58.341Z,3.17
2019-04-21T20:10:33.021Z,2.90
2019-04-21T20:13:03.140Z,3.57
2019-04-21T20:15:51.667Z,2.80
2019-04-21T20:17:58.530Z,2.67
2019-04-21T20:20:17.092Z,3.20
2019-04-21T20:22:48.836Z,3.17
2019-04-21T20:25:19.053Z,3.00
2019-04-21T20:27:55.422Z,3.20
2019-04-21T20:30:33.017Z,2.93
2019-04-21T20:33:05.919Z,2.93
2019-04-21T20:35:41.545Z,2.67
2019-04-21T20:38:03.301Z,3.13
2019-04-21T20:40:28.161Z,3.10
2019-04-21T20:43:13.423Z,2.93
2019-04-21T20:45:44.270Z,3.03
2019-04-21T20:47:54.613Z,2.77
2019-04-21T20:50:33.319Z,3.20
2019-04-21T20:53:11.151Z,3.27
2019-04-21T20:55:35.471Z,3.40
2019-04-21T20:58:04.238Z,3.00
2019-04-21T21:00:54.568Z,3.03
2019-04-21T21:03:12.045Z,2.87
2019-04-21T21:05:35.913Z,2.80
2019-04-21T21:08:14.372Z,3.00
2019-04-21T21:10:36.793Z,2.63
2019-04-21T21:13:14.753Z,3.17
2019-04-21T21:15:36.401Z,3.20
2019-04-21T21:18:15.544Z,3.03
2019-04-21T21:20:43.571Z,3.20
2019-04-21T21:23:02.920Z,2.93
2019-04-21T21:25:44.704Z,3.20
2019-04-21T21:28:01.214Z,3.07
2019-04-21T21:30:35.048Z,2.93
2019-04-21T21:33:14.055Z,3.13
2019-04-21T21:35:37.259Z,3.20
2019-04-21T21:38:13.071Z,2.90
2019-04-21T21:40:36.634Z,3.73
2019-04-21T21:42:55.228Z,3.30
2019-04-21T21:45:26.943Z,3.20
2019-04-21T21:48:17.770Z,3.67
2019-04-21T21:50:28.171Z,3.30
2019-04-21T21:53:02.164Z,3.40
2019-04-21T21:55:23.717Z,2.90
2019-04-21T21:58:12.436Z,3.33
2019-04-21T22:00:46.408Z,3.03
2019-04-21T22:03:19.611Z,3.40
2019-04-21T22:05:48.769Z,3.20
2019-04-21T22:08:12.339Z,3.53
2019-04-21T22:10:41.210Z,3.40
2019-04-21T22:13:14.148Z,3.17
2019-04-21T22:15:39.590Z,3.40
2019-04-21T22:18:27.325Z,3.50
2019-04-21T22:20:55.005Z,3.00
2019-04-21T22:23:13.223Z,3.57
2019-04-21T22:25:39.916Z,3.70
2019-04-21T22:28:07.463Z,3.30
2019-04-21T22:30:40.993Z,3.60
2019-04-21T22:33:10.087Z,3.60
2019-04-21T22:35:42.647Z,3.60
2019-04-21T22:38:19.055Z,3.37
2019-04-21T22:40:50.687Z,3.30
2019-04-21T22:43:18.452Z,3.17
2019-04-21T22:45:35.659Z,3.07
2019-04-21T22:48:13.609Z,2.83
2019-04-21T22:50:34.900Z,3.00
2019-04-21T22:53:07.163Z,2.73
2019-04-21T22:55:35.142Z,3.33
2019-04-21T22:58:03.875Z,3.00
2019-04-21T23:00:37.754Z,3.43
2019-04-21T23:03:09.790Z,3.20
2019-04-21T23:05:37.312Z,3.60
2019-04-21T23:08:04.866Z,3.30
2019-04-21T23:10:31.757Z,3.03
2019-04-21T23:13:05.711Z,2.97
2019-04-21T23:15:39.533Z,2.83
2019-04-21T23:18:21.689Z,2.87
2019-04-21T23:20:47.686Z,3.27
2019-04-21T23:23:16.395Z,2.63
2019-04-21T23:25:42.534Z,3.53
2019-04-21T23:28:13.690Z,2.83
2019-04-21T23:30:50.383Z,3.20
2019-04-21T23:33:06.297Z,3.53
2019-04-21T23:35:35.305Z,2.90
2019-04-21T23:38:03.556Z,2.90
2019-04-21T23:40:29.668Z,2.80
2019-04-21T23:43:00.038Z,3.00
2019-04-21T23:45:35.075Z,3.23
2019-04-21T23:48:10.787Z,3.00
2019-04-21T23:50:37.886Z,2.90
2019-04-21T23:52:57.462Z,2.70
2019-04-21T23:55:25.617Z,3.60
2019-04-21T23:58:04.939Z,3.00
